Santiago, Minnesota
Current Conditions -  °F | °C
As of 7:14 PM on Monday 26 Jan 2015 (Local Time) from KPNM Reporting Station
Overcast Overcast  
Wind Chill: 34°   Ceiling: 3000
Heat Index: 39°   Visibility: 10mi
Dew Point: 30°   Wind: 7mph
Humidity: 70%   Direction: 300°WNW
Pressure: 29.88"   Gusts: NA
Location:  45.54°N, 93.82°W
Report Text: KPNM 270114Z AUTO 30006KT 10SM OVC030 04/M01 A2988 RMK AO2
Loading
Personal Weather Stations






























Interactive Weather Map New forecast layout! Learn more

10-Day Weather Forecast

Advertisements
Track Severe Weather on mobile